Time;durP1;ratioP1;P1;durP2;ratioP2;P2;SDS_P1;SDS_P2;PMS_P1;PMS_P2;Temp;Humidity;BMP_temperature;BMP_pressure;BME280_temperature;BME280_humidity;BME280_pressure;Samples;Min_cycle;Max_cycle;Signal;HPM_P1;HPM_P2
2021/05/17 00:01:59;;;;;;;3.42;2.10;;;;;;;11.57;66.62;99655.19;5093811;28;20044;-53
2021/05/17 00:04:33;;;;;;;5.22;2.40;;;;;;;11.52;66.63;99658.31;5106033;28;20056;-50
2021/05/17 00:07:03;;;;;;;2.95;2.00;;;;;;;11.46;66.62;99667.34;5086207;28;20051;-51
2021/05/17 00:09:31;;;;;;;4.47;1.75;;;;;;;11.43;66.41;99676.41;5088563;28;20370;-55
2021/05/17 00:11:58;;;;;;;3.55;1.60;;;;;;;11.38;66.55;99668.44;5080938;28;20128;-54
2021/05/17 00:14:27;;;;;;;2.95;1.90;;;;;;;11.39;66.34;99670.81;5091505;28;20075;-54
2021/05/17 00:16:54;;;;;;;5.93;1.52;;;;;;;11.36;66.09;99671.56;5099482;28;20051;-56
2021/05/17 00:19:22;;;;;;;3.17;1.80;;;;;;;11.28;66.30;99664.34;5099109;28;20432;-52
2021/05/17 00:21:50;;;;;;;13.40;3.83;;;;;;;11.21;66.27;99675.34;5072255;28;20075;-51
2021/05/17 00:24:18;;;;;;;3.60;1.75;;;;;;;11.13;66.40;99668.09;5103994;28;20048;-53
2021/05/17 00:26:46;;;;;;;2.15;1.42;;;;;;;11.02;66.77;99667.16;5094954;28;20462;-54
2021/05/17 00:29:13;;;;;;;4.35;1.77;;;;;;;11.00;66.52;99672.28;5099564;28;20398;-51
2021/05/17 00:31:43;;;;;;;2.92;2.17;;;;;;;10.93;66.52;99675.72;5091064;28;20562;-52
2021/05/17 00:34:10;;;;;;;3.10;1.50;;;;;;;10.94;66.55;99679.28;5094238;28;20065;-50
2021/05/17 00:36:38;;;;;;;2.58;1.13;;;;;;;10.87;66.59;99676.44;5090382;28;20075;-50
2021/05/17 00:39:09;;;;;;;1.30;1.20;;;;;;;10.80;66.69;99676.34;5097297;28;20791;-55
2021/05/17 00:41:38;;;;;;;3.13;1.30;;;;;;;10.79;66.79;99681.06;5077692;28;20047;-54
2021/05/17 00:44:05;;;;;;;1.52;1.00;;;;;;;10.79;66.69;99680.25;5092353;28;20047;-52
2021/05/17 00:46:33;;;;;;;3.28;1.30;;;;;;;10.72;66.82;99680.94;5109789;28;20104;-51
2021/05/17 00:49:04;;;;;;;3.10;1.38;;;;;;;10.69;66.72;99684.47;5092728;28;20060;-53
2021/05/17 00:51:32;;;;;;;1.80;1.40;;;;;;;10.65;66.78;99699.41;5093026;28;20121;-54
2021/05/17 00:54:03;;;;;;;7.35;2.42;;;;;;;10.58;66.98;99691.00;5091854;28;20101;-54
2021/05/17 00:56:30;;;;;;;3.75;1.23;;;;;;;10.54;66.82;99695.69;5084971;28;20123;-49
2021/05/17 00:58:57;;;;;;;2.85;1.10;;;;;;;10.49;67.05;99695.97;5071025;28;20044;-55
2021/05/17 01:01:24;;;;;;;3.28;1.52;;;;;;;10.45;67.12;99692.38;5087696;28;20097;-51
2021/05/17 01:03:51;;;;;;;2.70;1.35;;;;;;;10.34;67.27;99701.28;5091683;28;20089;-50
2021/05/17 01:06:21;;;;;;;4.40;1.58;;;;;;;10.32;67.35;99698.09;5103628;28;20039;-52
2021/05/17 01:09:06;;;;;;;2.97;1.60;;;;;;;10.31;67.44;99699.25;5111855;28;20089;-52
2021/05/17 01:11:34;;;;;;;1.73;1.27;;;;;;;10.32;67.40;99694.53;5099127;28;20166;-49
2021/05/17 01:14:04;;;;;;;2.95;1.48;;;;;;;10.32;67.35;99698.09;5079856;28;20052;-47
2021/05/17 01:16:32;;;;;;;5.05;2.08;;;;;;;10.29;67.14;99700.78;5094354;28;20075;-48
2021/05/17 01:18:59;;;;;;;3.90;1.15;;;;;;;10.28;67.10;99700.00;5098415;28;20071;-51
2021/05/17 01:21:31;;;;;;;3.63;1.52;;;;;;;10.25;67.15;99711.78;5101557;28;20036;-48
2021/05/17 01:23:58;;;;;;;6.90;1.50;;;;;;;10.22;67.25;99720.00;5115827;28;20075;-49
2021/05/17 01:26:27;;;;;;;2.92;1.35;;;;;;;10.18;67.22;99719.97;5098759;28;20142;-52
2021/05/17 01:29:06;;;;;;;1.88;1.50;;;;;;;10.21;67.39;99722.00;5080466;28;20445;-47
2021/05/17 01:31:34;;;;;;;2.80;1.23;;;;;;;10.20;67.25;99720.38;5087692;28;20036;-52
2021/05/17 01:34:02;;;;;;;7.50;1.63;;;;;;;10.16;67.55;99730.59;5095752;28;20036;-48
2021/05/17 01:36:29;;;;;;;2.55;1.58;;;;;;;10.14;67.79;99737.66;5095258;28;20040;-50
2021/05/17 01:38:57;;;;;;;5.40;1.50;;;;;;;10.15;67.76;99737.28;5108818;28;20142;-52
2021/05/17 01:41:25;;;;;;;7.13;1.73;;;;;;;10.12;68.11;99740.78;5100507;28;20132;-49
2021/05/17 01:43:56;;;;;;;2.92;1.65;;;;;;;10.13;68.18;99747.94;5097439;28;20048;-50
2021/05/17 01:46:32;;;;;;;3.65;1.42;;;;;;;10.14;68.43;99741.22;5110791;28;20091;-48
2021/05/17 01:49:00;;;;;;;2.60;2.00;;;;;;;10.16;68.10;99736.13;5096481;28;20492;-49
2021/05/17 01:51:27;;;;;;;4.75;2.28;;;;;;;10.20;68.07;99738.94;5110934;28;20082;-48
2021/05/17 01:53:54;;;;;;;2.65;1.50;;;;;;;10.15;68.05;99745.59;5106261;28;20086;-47
2021/05/17 01:56:21;;;;;;;7.15;1.95;;;;;;;10.09;68.28;99755.31;5101068;28;20075;-50
2021/05/17 01:58:48;;;;;;;6.30;1.90;;;;;;;10.05;68.44;99756.41;5102645;28;20048;-51
2021/05/17 02:01:17;;;;;;;2.33;1.63;;;;;;;9.96;68.61;99764.94;5093050;28;20381;-48
2021/05/17 02:03:48;;;;;;;3.20;1.50;;;;;;;9.94;68.55;99760.94;5100718;28;20086;-47
2021/05/17 02:06:17;;;;;;;4.43;2.00;;;;;;;9.98;68.46;99767.34;5071876;28;20082;-48
2021/05/17 02:08:46;;;;;;;4.05;1.90;;;;;;;9.93;68.39;99749.06;5105724;28;20071;-52
2021/05/17 02:11:15;;;;;;;2.78;1.60;;;;;;;9.88;68.50;99754.88;5107068;28;20070;-50
2021/05/17 02:13:45;;;;;;;3.15;1.75;;;;;;;9.87;68.54;99752.50;5106538;28;20044;-49
2021/05/17 02:16:13;;;;;;;3.53;1.65;;;;;;;9.83;68.48;99755.19;5103059;28;20039;-48
2021/05/17 02:18:43;;;;;;;1.98;1.35;;;;;;;9.81;68.50;99763.03;5107822;28;20093;-49
2021/05/17 02:21:11;;;;;;;3.60;1.55;;;;;;;9.79;68.59;99765.38;5089640;28;20478;-50
2021/05/17 02:23:39;;;;;;;2.53;1.92;;;;;;;9.74;68.55;99776.72;5088615;28;20481;-48
2021/05/17 02:26:06;;;;;;;4.28;1.70;;;;;;;9.72;68.68;99777.06;5111649;28;20496;-48
2021/05/17 02:28:40;;;;;;;2.60;1.58;;;;;;;9.70;68.69;99778.59;5094058;28;20040;-49
2021/05/17 02:31:09;;;;;;;2.50;1.40;;;;;;;9.70;68.73;99784.13;5103199;28;20569;-50
2021/05/17 02:33:36;;;;;;;5.72;1.50;;;;;;;9.72;68.80;99785.38;5106132;28;20075;-48
2021/05/17 02:36:05;;;;;;;3.33;1.33;;;;;;;9.68;68.75;99792.00;5079557;28;20502;-47
2021/05/17 02:38:33;;;;;;;3.72;1.98;;;;;;;9.66;68.85;99799.84;5088072;28;20557;-49
2021/05/17 02:41:00;;;;;;;4.70;1.65;;;;;;;9.62;68.84;99796.19;5084808;28;20154;-51
2021/05/17 02:43:29;;;;;;;3.10;1.70;;;;;;;9.59;68.89;99799.69;5093660;28;20524;-49
2021/05/17 02:45:56;;;;;;;2.72;1.70;;;;;;;9.57;68.97;99794.53;5106807;28;20122;-48
2021/05/17 02:48:28;;;;;;;8.45;3.38;;;;;;;9.56;69.02;99816.97;5110817;28;20043;-54
2021/05/17 02:50:55;;;;;;;;;;;;;;;9.48;69.30;99806.94;5113048;28;20052;-49
2021/05/17 02:53:25;;;;;;;2.92;1.83;;;;;;;9.48;69.07;99809.69;5105345;28;19972;-52
2021/05/17 02:55:57;;;;;;;3.67;1.60;;;;;;;9.49;69.26;99816.81;5090910;28;20459;-51
2021/05/17 02:58:30;;;;;;;5.18;1.48;;;;;;;9.51;69.10;99817.25;5098929;28;20063;-48
2021/05/17 03:01:07;;;;;;;3.30;1.50;;;;;;;9.45;69.42;99827.00;5102323;28;20048;-50
2021/05/17 03:03:51;;;;;;;4.03;1.73;;;;;;;9.46;69.06;99826.63;5095806;28;20040;-47
2021/05/17 03:06:21;;;;;;;4.85;2.10;;;;;;;9.49;69.06;99825.91;5103816;28;20146;-49
2021/05/17 03:08:59;;;;;;;2.72;1.98;;;;;;;9.52;69.08;99827.16;5095028;28;20155;-47
2021/05/17 03:11:28;;;;;;;2.80;1.70;;;;;;;9.48;69.03;99827.06;5097393;28;20055;-47
2021/05/17 03:13:58;;;;;;;3.65;2.00;;;;;;;9.54;69.08;99828.41;5089580;28;20082;-51
2021/05/17 03:16:26;;;;;;;4.90;2.00;;;;;;;9.51;69.05;99826.34;5112907;28;20138;-50
2021/05/17 03:18:56;;;;;;;4.80;2.47;;;;;;;9.50;69.08;99829.50;5102110;28;20134;-52
2021/05/17 03:21:28;;;;;;;4.13;2.20;;;;;;;9.52;68.86;99835.44;5093002;28;20268;-48
2021/05/17 03:23:56;;;;;;;;;;;;;;;9.49;69.02;99838.94;5105709;28;20039;-49
2021/05/17 03:26:24;;;;;;;2.58;1.73;;;;;;;9.45;68.83;99849.09;5106234;28;20010;-48
2021/05/17 03:28:53;;;;;;;5.40;1.73;;;;;;;9.46;68.87;99856.22;5099508;28;20404;-47
2021/05/17 03:31:20;;;;;;;5.68;2.13;;;;;;;9.47;68.72;99853.13;5093918;28;20043;-49
2021/05/17 03:33:46;;;;;;;3.85;2.15;;;;;;;9.45;68.83;99860.94;5093461;28;20044;-48
2021/05/17 03:36:13;;;;;;;3.38;2.25;;;;;;;9.43;69.00;99862.47;5094792;28;20086;-52
2021/05/17 03:38:40;;;;;;;3.08;1.83;;;;;;;9.43;68.83;99867.97;5093111;28;20075;-49
2021/05/17 03:41:09;;;;;;;3.80;2.22;;;;;;;9.33;69.25;99872.09;5093256;28;20063;-48
2021/05/17 03:43:36;;;;;;;3.22;2.22;;;;;;;9.26;69.48;99873.91;5103118;28;20044;-53
2021/05/17 03:46:04;;;;;;;3.67;1.80;;;;;;;9.26;69.48;99884.94;5089545;28;20076;-48
2021/05/17 03:48:30;;;;;;;2.67;1.85;;;;;;;9.19;69.60;99891.06;5107373;28;20105;-50
2021/05/17 03:50:57;;;;;;;3.63;2.28;;;;;;;9.20;69.73;99887.16;5085216;28;20130;-47
2021/05/17 03:53:24;;;;;;;2.55;1.92;;;;;;;9.15;69.83;99892.97;5099919;28;20110;-48
2021/05/17 03:55:50;;;;;;;6.15;2.20;;;;;;;9.09;69.94;99897.94;5094741;28;20075;-51
2021/05/17 03:58:17;;;;;;;5.07;2.25;;;;;;;9.05;70.14;99890.75;5085537;28;20068;-48
2021/05/17 04:00:44;;;;;;;2.47;1.63;;;;;;;9.01;70.50;99906.41;5088553;28;20079;-48
2021/05/17 04:03:14;;;;;;;3.00;1.27;;;;;;;8.96;70.49;99899.19;5073085;28;20143;-51
2021/05/17 04:13:35;;;;;;;2.13;1.20;;;;;;;8.84;70.98;99912.28;5096031;28;20059;-50
2021/05/17 04:16:02;;;;;;;2.45;1.23;;;;;;;8.86;71.07;99905.25;5092220;28;20481;-49
2021/05/17 04:18:29;;;;;;;4.78;1.05;;;;;;;8.89;71.03;99926.63;5072001;28;20056;-50
2021/05/17 04:20:56;;;;;;;3.40;1.30;;;;;;;8.84;71.16;99924.09;5070543;28;20113;-47
2021/05/17 04:23:25;;;;;;;3.13;1.00;;;;;;;8.79;71.30;99918.81;5102309;28;20505;-49
2021/05/17 04:25:52;;;;;;;2.08;1.30;;;;;;;8.77;71.43;99928.63;5098696;28;20119;-47
2021/05/17 04:28:20;;;;;;;1.85;1.35;;;;;;;8.73;71.64;99930.50;5101502;28;20079;-48
2021/05/17 04:30:47;;;;;;;6.05;1.13;;;;;;;8.66;71.59;99933.84;5101999;28;20517;-47
2021/05/17 04:33:14;;;;;;;6.05;1.40;;;;;;;8.71;71.61;99936.34;5091804;28;20085;-48
2021/05/17 04:35:41;;;;;;;3.92;1.15;;;;;;;8.68;71.68;99937.06;5098726;28;20165;-49
2021/05/17 04:38:10;;;;;;;3.28;1.40;;;;;;;8.73;71.52;99938.78;5086022;28;20067;-50
2021/05/17 04:40:37;;;;;;;5.95;1.38;;;;;;;8.73;71.54;99938.78;5082455;28;20098;-50
2021/05/17 04:43:04;;;;;;;3.83;1.75;;;;;;;8.73;71.55;99934.06;5103950;28;20139;-51
2021/05/17 04:45:31;;;;;;;2.13;1.45;;;;;;;8.79;71.40;99931.84;5096347;28;20067;-50
2021/05/17 04:47:58;;;;;;;3.08;1.10;;;;;;;8.75;71.66;99941.97;5093921;28;20396;-48
2021/05/17 04:50:25;;;;;;;3.00;1.38;;;;;;;8.71;71.71;99943.84;5095272;28;20054;-51
2021/05/17 04:52:52;;;;;;;1.13;1.02;;;;;;;8.73;71.88;99945.09;5084772;28;20063;-49
2021/05/17 04:55:19;;;;;;;2.78;1.30;;;;;;;8.81;71.73;99952.41;5086562;28;20497;-48
2021/05/17 04:57:45;;;;;;;2.28;1.10;;;;;;;8.80;71.48;99956.31;5100809;28;20126;-50
2021/05/17 05:00:13;;;;;;;2.13;1.10;;;;;;;8.83;71.63;99960.34;5108922;28;20048;-51
2021/05/17 05:02:40;;;;;;;2.15;1.33;;;;;;;8.85;71.54;99961.59;5110015;28;20130;-51
2021/05/17 05:05:07;;;;;;;5.35;1.60;;;;;;;8.82;71.49;99959.53;5111056;28;20131;-47
2021/05/17 05:07:35;;;;;;;1.60;1.42;;;;;;;8.76;71.95;99966.47;5110229;28;20048;-46
2021/05/17 05:10:04;;;;;;;1.98;1.52;;;;;;;8.76;71.88;99966.47;5109904;28;20044;-52
2021/05/17 05:12:31;;;;;;;6.75;2.35;;;;;;;8.75;71.87;99969.56;5084726;28;20090;-51
2021/05/17 05:14:58;;;;;;;4.90;1.88;;;;;;;8.81;71.84;99968.16;5108662;28;20489;-46
2021/05/17 05:17:24;;;;;;;7.00;1.83;;;;;;;8.75;71.93;99975.09;5109194;28;20067;-48
2021/05/17 05:19:51;;;;;;;5.72;1.33;;;;;;;8.80;72.03;99975.66;5101781;28;20040;-49
2021/05/17 05:22:18;;;;;;;3.70;1.38;;;;;;;8.87;72.01;99978.59;5109416;28;20069;-49
2021/05/17 05:24:46;;;;;;;3.78;1.45;;;;;;;8.90;71.83;99983.41;5081836;28;20126;-48
2021/05/17 05:27:28;;;;;;;3.50;1.45;;;;;;;8.96;71.58;99987.53;5111707;28;20067;-46
2021/05/17 05:34:48;;;;;;;3.67;1.65;;;;;;;8.97;72.03;100005.72;5097606;28;20048;-48
2021/05/17 05:37:15;;;;;;;5.22;1.38;;;;;;;8.92;72.33;100003.19;5091311;28;20133;-48
2021/05/17 05:39:43;;;;;;;2.38;1.33;;;;;;;8.92;72.34;99997.66;5109605;28;20075;-48
2021/05/17 05:42:11;;;;;;;3.85;1.52;;;;;;;8.99;72.34;100013.63;5091209;28;20036;-47
2021/05/17 05:44:47;;;;;;;2.83;1.20;;;;;;;9.04;72.22;100011.41;5108101;28;20039;-55
2021/05/17 05:47:16;;;;;;;2.83;1.55;;;;;;;9.03;72.32;100020.84;5107826;28;20450;-46
2021/05/17 05:49:44;;;;;;;3.65;1.25;;;;;;;9.08;72.35;100015.06;5101875;28;20127;-47
2021/05/17 05:52:12;;;;;;;1.63;1.13;;;;;;;9.12;72.20;100020.69;5099145;28;20118;-47
2021/05/17 05:54:38;;;;;;;5.10;1.55;;;;;;;9.13;72.29;100025.84;5100773;28;20067;-53
2021/05/17 05:57:07;;;;;;;2.33;1.55;;;;;;;9.14;72.25;100023.91;5094446;28;20139;-49
2021/05/17 05:59:34;;;;;;;1.60;1.25;;;;;;;9.14;72.44;100023.91;5091388;28;20043;-48
2021/05/17 06:02:01;;;;;;;2.92;1.42;;;;;;;9.15;72.48;100031.84;5088112;28;20090;-47
2021/05/17 06:04:28;;;;;;;3.75;1.60;;;;;;;9.13;72.61;100036.13;5103163;28;20097;-48
2021/05/17 06:06:55;;;;;;;2.30;1.75;;;;;;;9.15;72.52;100031.84;5096558;28;20412;-47
2021/05/17 06:09:22;;;;;;;2.28;1.45;;;;;;;9.19;72.61;100035.50;5114897;28;20568;-53
2021/05/17 06:11:48;;;;;;;5.07;1.73;;;;;;;9.28;72.54;100027.06;5099547;28;20043;-51
2021/05/17 06:14:16;;;;;;;1.90;1.27;;;;;;;9.33;72.40;100028.75;5100791;28;20032;-50
2021/05/17 06:16:43;;;;;;;4.63;1.50;;;;;;;9.35;72.48;100031.94;5114616;28;20457;-47
2021/05/17 06:19:10;;;;;;;8.27;2.08;;;;;;;9.37;72.63;100037.94;5095685;28;20075;-49
2021/05/17 06:21:37;;;;;;;5.82;1.30;;;;;;;9.38;72.73;100034.00;5104970;28;20481;-48
2021/05/17 06:24:05;;;;;;;4.07;1.23;;;;;;;9.42;72.78;100037.69;5104282;28;20048;-51
2021/05/17 06:26:33;;;;;;;3.38;1.42;;;;;;;9.51;72.54;100041.06;5084343;28;20085;-47
2021/05/17 06:29:00;;;;;;;2.70;1.50;;;;;;;9.59;72.44;100056.69;5086725;28;20071;-50
2021/05/17 06:31:27;;;;;;;3.05;1.80;;;;;;;9.61;72.45;100052.41;5106516;28;20163;-50
2021/05/17 06:33:54;;;;;;;4.00;1.27;;;;;;;9.67;72.47;100056.50;5099853;28;20131;-46
2021/05/17 06:36:21;;;;;;;2.38;1.60;;;;;;;9.80;72.41;100054.47;5085567;28;20075;-48
2021/05/17 06:38:50;;;;;;;3.50;1.30;;;;;;;9.82;72.30;100060.44;5099187;28;20067;-49
2021/05/17 06:41:17;;;;;;;3.08;1.45;;;;;;;9.93;72.37;100066.25;5096790;28;20082;-51
2021/05/17 06:43:50;;;;;;;4.35;1.60;;;;;;;10.08;72.19;100070.97;5100598;28;20142;-48
2021/05/17 06:46:17;;;;;;;5.22;1.38;;;;;;;10.22;72.09;100077.66;5092201;28;20127;-53
2021/05/17 06:48:44;;;;;;;3.15;1.35;;;;;;;10.38;71.96;100070.13;5090878;28;20463;-50
2021/05/17 06:51:16;;;;;;;4.65;1.73;;;;;;;10.57;71.80;100082.41;5095585;28;20055;-50
2021/05/17 06:53:49;;;;;;;10.70;3.03;;;;;;;10.80;71.75;100083.34;5082894;28;20041;-48
2021/05/17 06:58:58;;;;;;;7.20;1.75;;;;;;;11.07;71.03;100093.41;5112439;28;20583;-49
2021/05/17 07:01:26;;;;;;;7.07;1.63;;;;;;;11.09;70.97;100088.31;5105135;28;20135;-48
2021/05/17 07:03:55;;;;;;;3.53;1.20;;;;;;;11.10;70.57;100095.44;5070383;28;20040;-51
2021/05/17 07:06:25;;;;;;;3.63;1.35;;;;;;;11.05;70.12;100098.50;5073320;28;20044;-50
2021/05/17 07:11:55;;;;;;;1.00;0.85;;;;;;;10.94;69.53;100097.47;5090857;28;20069;-48
2021/05/17 07:14:22;;;;;;;5.72;1.17;;;;;;;10.90;69.27;100102.97;5110272;28;20127;-50
2021/05/17 07:16:50;;;;;;;3.42;1.15;;;;;;;10.82;69.30;100098.44;5109524;28;20093;-51
2021/05/17 07:19:19;;;;;;;2.83;1.83;;;;;;;10.80;69.39;100100.72;5100591;28;20054;-51
2021/05/17 07:24:32;;;;;;;1.90;0.85;;;;;;;10.93;69.11;100107.75;5086647;28;20157;-47
2021/05/17 07:26:58;;;;;;;3.90;1.20;;;;;;;10.96;69.26;100106.25;5089405;28;20044;-50
2021/05/17 07:29:27;;;;;;;2.25;1.00;;;;;;;11.14;69.35;100112.16;5069556;28;20032;-49
2021/05/17 07:31:54;;;;;;;5.25;0.95;;;;;;;11.24;69.05;100112.38;5088591;28;20502;-50
2021/05/17 07:34:21;;;;;;;4.25;1.42;;;;;;;11.28;68.88;100118.78;5079707;28;20150;-50
2021/05/17 07:36:48;;;;;;;3.78;1.33;;;;;;;11.29;68.87;100120.38;5100439;28;20138;-50
2021/05/17 07:39:15;;;;;;;1.38;1.10;;;;;;;11.33;68.92;100124.03;5102513;28;20059;-52
2021/05/17 07:41:43;;;;;;;1.45;0.80;;;;;;;11.28;68.40;100129.84;5093503;28;20052;-51
2021/05/17 07:44:11;;;;;;;3.75;0.95;;;;;;;11.21;68.45;100123.38;5093250;28;20056;-52
2021/05/17 07:46:37;;;;;;;4.75;1.40;;;;;;;11.16;68.54;100124.47;5095528;28;20071;-53
2021/05/17 07:49:11;;;;;;;3.35;1.05;;;;;;;11.23;68.54;100130.16;5105022;28;20108;-52
2021/05/17 07:51:40;;;;;;;3.45;0.85;;;;;;;11.35;68.36;100135.56;5101468;28;20052;-49
2021/05/17 07:54:07;;;;;;;3.63;1.02;;;;;;;11.44;68.39;100129.78;5101892;28;20146;-54
2021/05/17 07:56:34;;;;;;;2.58;1.70;;;;;;;11.58;68.20;100133.63;5104194;28;20051;-48
2021/05/17 07:59:01;;;;;;;2.38;1.20;;;;;;;11.77;67.96;100126.50;5107454;28;20094;-50
2021/05/17 08:01:28;;;;;;;7.90;1.55;;;;;;;11.92;68.14;100131.13;5072817;28;20123;-54
2021/05/17 08:03:55;;;;;;;2.22;0.77;;;;;;;12.08;68.10;100137.34;5104539;28;20047;-50
2021/05/17 08:06:24;;;;;;;3.88;1.13;;;;;;;12.12;67.65;100124.34;5095686;28;20039;-51
2021/05/17 08:08:52;;;;;;;5.78;2.22;;;;;;;12.21;67.24;100127.66;5095621;28;20076;-52
2021/05/17 08:11:20;;;;;;;7.13;1.42;;;;;;;12.32;67.04;100125.06;5092468;28;20101;-52
2021/05/17 08:13:47;;;;;;;30.70;2.85;;;;;;;12.53;67.45;100134.53;5090725;28;20460;-51
2021/05/17 08:16:19;;;;;;;4.82;1.35;;;;;;;12.68;66.64;100130.78;5090984;28;20035;-48
2021/05/17 08:18:48;;;;;;;2.10;0.90;;;;;;;12.76;66.28;100137.28;5082109;28;20048;-51
2021/05/17 08:21:18;;;;;;;2.17;1.13;;;;;;;12.90;65.87;100143.03;5092557;28;20048;-48
2021/05/17 08:23:48;;;;;;;2.47;0.65;;;;;;;13.05;65.66;100136.47;5098708;28;20047;-51
2021/05/17 08:26:15;;;;;;;6.55;1.10;;;;;;;13.32;65.34;100142.81;5093293;28;20067;-52
2021/05/17 08:28:42;;;;;;;5.50;1.33;;;;;;;13.60;64.59;100137.63;5076922;28;20043;-49
2021/05/17 08:31:12;;;;;;;4.03;0.80;;;;;;;14.05;64.71;100136.50;5098443;28;20036;-51
2021/05/17 08:33:39;;;;;;;3.30;0.75;;;;;;;14.48;64.25;100144.06;5092460;28;20094;-51
2021/05/17 08:36:07;;;;;;;2.75;0.60;;;;;;;14.78;63.26;100140.28;5084934;28;20501;-49
2021/05/17 08:38:35;;;;;;;2.58;0.55;;;;;;;14.81;62.16;100139.50;5090431;28;20123;-54
2021/05/17 08:41:11;;;;;;;4.22;0.50;;;;;;;14.79;61.25;100142.69;5095434;28;20560;-50
2021/05/17 08:43:42;;;;;;;4.82;2.33;;;;;;;14.74;60.58;100133.91;5079256;28;20040;-49
2021/05/17 08:46:13;;;;;;;2.35;1.23;;;;;;;15.21;60.75;100147.72;5100824;28;20050;-50
2021/05/17 08:48:49;;;;;;;3.80;0.82;;;;;;;15.94;59.93;100152.00;5090754;28;20052;-52
2021/05/17 08:51:22;;;;;;;1.92;0.82;;;;;;;16.70;59.00;100143.31;5101140;28;20379;-53
2021/05/17 08:53:51;;;;;;;2.55;0.80;;;;;;;17.32;56.77;100146.34;5071392;28;20057;-52
2021/05/17 08:56:18;;;;;;;4.53;1.50;;;;;;;17.93;55.11;100147.69;5098935;28;20109;-49
2021/05/17 08:58:46;;;;;;;2.72;0.77;;;;;;;18.23;53.81;100142.28;5097356;28;20069;-51
2021/05/17 09:01:13;;;;;;;1.92;0.55;;;;;;;18.53;52.36;100150.88;5077134;28;20071;-47
2021/05/17 09:03:55;;;;;;;3.70;0.35;;;;;;;18.91;51.01;100157.34;5078351;28;20048;-48
2021/05/17 09:06:25;;;;;;;2.92;0.60;;;;;;;19.44;50.61;100153.97;5106127;28;20151;-50
2021/05/17 09:08:55;;;;;;;4.32;0.75;;;;;;;19.73;49.25;100158.03;5092233;28;20048;-49
2021/05/17 09:11:32;;;;;;;1.70;0.40;;;;;;;20.07;45.86;100149.53;5088378;28;20144;-48
2021/05/17 09:14:13;;;;;;;1.17;0.43;;;;;;;20.44;45.54;100151.38;5085066;28;20567;-51
2021/05/17 09:16:54;;;;;;;2.22;0.40;;;;;;;20.02;46.45;100159.22;5101247;28;20048;-48
2021/05/17 09:19:26;;;;;;;1.02;0.32;;;;;;;19.19;47.08;100159.88;5078274;28;20436;-50
2021/05/17 09:22:07;;;;;;;6.63;0.70;;;;;;;18.87;45.84;100161.41;5092611;28;20126;-48
2021/05/17 09:24:43;;;;;;;1.30;0.35;;;;;;;19.42;46.54;100165.66;5089391;28;20054;-50
2021/05/17 09:27:18;;;;;;;4.10;0.30;;;;;;;19.92;45.30;100154.56;5079822;28;20119;-49
2021/05/17 09:29:50;;;;;;;1.33;0.57;;;;;;;19.73;44.91;100160.03;5094957;28;20094;-47
2021/05/17 09:32:22;;;;;;;4.95;0.60;;;;;;;19.07;44.70;100157.59;5088612;28;20075;-47
2021/05/17 09:34:58;;;;;;;3.72;0.60;;;;;;;18.19;45.14;100155.50;5068423;28;20044;-49
2021/05/17 09:37:25;;;;;;;1.35;0.47;;;;;;;17.59;45.87;100167.06;5071217;28;20040;-47
2021/05/17 09:39:56;;;;;;;3.50;0.68;;;;;;;17.43;46.64;100170.28;5108648;28;20059;-48
2021/05/17 09:42:24;;;;;;;1.23;0.40;;;;;;;18.06;46.12;100162.81;5095107;28;20050;-48
2021/05/17 09:44:53;;;;;;;3.38;0.52;;;;;;;18.91;45.22;100168.56;5092665;28;20052;-47
2021/05/17 09:47:24;;;;;;;10.10;0.90;;;;;;;19.02;44.55;100168.47;5099237;28;20054;-47
2021/05/17 09:49:56;;;;;;;1.13;0.32;;;;;;;18.51;44.02;100177.72;5097796;28;20695;-46
2021/05/17 09:52:28;;;;;;;1.33;0.47;;;;;;;17.83;43.81;100154.94;5096622;28;20517;-54
2021/05/17 09:55:00;;;;;;;2.13;0.50;;;;;;;17.57;44.26;100175.06;5102435;28;20047;-47
2021/05/17 09:57:36;;;;;;;;;;;;;;;17.03;43.39;100168.00;5108518;28;20036;-46
2021/05/17 10:00:15;;;;;;;3.42;0.60;;;;;;;16.79;44.69;100180.00;5088915;28;20389;-51
2021/05/17 10:02:44;;;;;;;1.27;0.40;;;;;;;16.51;45.65;100168.81;5072191;28;20067;-51
2021/05/17 10:05:12;;;;;;;2.00;0.73;;;;;;;16.09;45.81;100177.97;5084043;28;20048;-46
2021/05/17 10:07:40;;;;;;;2.33;0.77;;;;;;;15.80;46.07;100174.31;5091394;28;20118;-49
2021/05/17 10:10:08;;;;;;;1.83;0.68;;;;;;;15.63;46.45;100159.09;5110135;28;20079;-50
2021/05/17 10:12:35;;;;;;;4.00;1.30;;;;;;;15.63;46.55;100170.25;5096053;28;20052;-50
2021/05/17 10:15:05;;;;;;;1.85;0.57;;;;;;;15.60;46.85;100176.63;5108717;28;20048;-52
2021/05/17 10:17:34;;;;;;;3.10;1.90;;;;;;;15.57;46.85;100176.59;5090904;28;20123;-47
2021/05/17 10:20:05;;;;;;;2.08;0.80;;;;;;;15.45;46.48;100174.94;5093353;28;20584;-49
2021/05/17 10:22:34;;;;;;;1.43;1.07;;;;;;;15.29;46.69;100177.25;5091937;28;20043;-50
2021/05/17 10:25:05;;;;;;;2.25;1.48;;;;;;;15.22;46.66;100177.22;5093894;28;20288;-47
2021/05/17 10:27:37;;;;;;;2.60;1.05;;;;;;;15.32;46.79;100186.81;5101665;28;20050;-50
2021/05/17 10:30:10;;;;;;;2.17;0.85;;;;;;;15.52;47.03;100190.91;5108670;28;20046;-54
2021/05/17 10:33:03;;;;;;;1.58;0.35;;;;;;;15.60;46.05;100186.97;5100565;28;20046;-49
2021/05/17 10:35:32;;;;;;;2.70;0.50;;;;;;;15.60;46.48;100181.38;5088097;28;20469;-50
2021/05/17 10:38:18;;;;;;;4.05;0.70;;;;;;;15.68;45.95;100177.44;5102071;28;20899;-47
2021/05/17 10:40:53;;;;;;;4.55;0.32;;;;;;;16.26;45.64;100180.78;5103040;28;20083;-47
2021/05/17 10:46:34;;;;;;;1.10;0.50;;;;;;;16.77;43.90;100188.81;5092800;28;20139;-54
2021/05/17 10:46:53;;;;;;;2.35;0.47;;;;;;;17.08;44.54;100187.16;5092269;28;20715;-52
2021/05/17 10:49:24;;;;;;;4.30;0.93;;;;;;;17.16;44.13;100179.56;5103749;28;20040;-49
2021/05/17 10:52:17;;;;;;;0.63;0.35;;;;;;;17.23;43.61;100182.34;5088729;28;20057;-49
2021/05/17 10:54:46;;;;;;;1.85;0.65;;;;;;;17.27;44.00;100183.13;5074061;28;20105;-54
2021/05/17 10:57:18;;;;;;;1.70;0.30;;;;;;;17.50;43.59;100187.03;5103216;28;20043;-48
2021/05/17 11:02:38;;;;;;;0.50;0.30;;;;;;;17.55;43.44;100183.84;5091659;28;20089;-48
2021/05/17 11:05:13;;;;;;;0.52;0.30;;;;;;;17.55;42.64;100181.06;5090097;28;20469;-48
2021/05/17 11:08:00;;;;;;;11.10;1.60;;;;;;;17.44;42.15;100185.91;5101508;28;20053;-50
2021/05/17 11:10:36;;;;;;;0.55;0.30;;;;;;;17.29;41.52;100187.13;5101834;28;20040;-46
2021/05/17 11:13:09;;;;;;;1.85;0.50;;;;;;;17.28;42.06;100179.13;5091709;28;20114;-48
2021/05/17 11:15:59;;;;;;;1.98;0.70;;;;;;;17.21;43.41;100185.53;5093438;28;20036;-54
2021/05/17 11:18:33;;;;;;;1.08;0.50;;;;;;;16.98;43.81;100193.59;5091762;28;20039;-54
2021/05/17 11:21:12;;;;;;;2.17;0.70;;;;;;;16.68;44.16;100190.44;5095958;28;20047;-54
2021/05/17 11:23:39;;;;;;;2.67;0.85;;;;;;;16.53;44.91;100194.41;5091446;28;20063;-52
2021/05/17 11:26:12;;;;;;;1.83;0.55;;;;;;;16.35;45.61;100197.97;5074456;28;20528;-49
2021/05/17 11:28:40;;;;;;;2.03;0.32;;;;;;;16.31;45.99;100199.94;5109312;28;20047;-51
2021/05/17 11:31:14;;;;;;;0.63;0.40;;;;;;;16.19;45.90;100205.09;5106061;28;20059;-49
2021/05/17 11:33:51;;;;;;;4.38;2.25;;;;;;;16.35;45.49;100202.75;5106263;28;20089;-53
2021/05/17 11:36:21;;;;;;;5.53;0.50;;;;;;;16.43;45.56;100196.78;5109046;28;20077;-51
2021/05/17 11:39:10;;;;;;;1.60;0.60;;;;;;;16.65;45.56;100199.59;5100565;28;20448;-52
2021/05/17 11:41:46;;;;;;;2.65;0.85;;;;;;;16.96;46.02;100207.19;5094121;28;20413;-51
2021/05/17 11:44:13;;;;;;;2.25;0.30;;;;;;;17.12;45.62;100204.75;5105802;28;20570;-50
2021/05/17 11:46:49;;;;;;;3.25;0.68;;;;;;;17.07;44.62;100199.56;5090158;28;20047;-50
2021/05/17 11:49:18;;;;;;;1.98;0.40;;;;;;;17.10;45.20;100201.56;5101540;28;20031;-48
2021/05/17 11:51:48;;;;;;;2.40;0.50;;;;;;;17.15;45.24;100206.75;5098630;28;20138;-54
2021/05/17 11:54:16;;;;;;;1.98;0.30;;;;;;;17.40;45.01;100196.28;5091903;28;20063;-53
2021/05/17 11:56:48;;;;;;;1.48;0.40;;;;;;;17.55;44.34;100200.66;5108892;28;20087;-52
2021/05/17 11:59:19;;;;;;;0.93;0.32;;;;;;;17.49;44.13;100196.66;5091598;28;20549;-49
2021/05/17 12:01:48;;;;;;;1.83;0.30;;;;;;;17.39;44.44;100203.09;5099758;28;20078;-49
2021/05/17 12:04:23;;;;;;;0.60;0.20;;;;;;;17.10;44.21;100223.94;5095522;28;20549;-51
2021/05/17 12:06:55;;;;;;;1.35;0.30;;;;;;;16.65;44.23;100222.78;5106862;28;20082;-51
2021/05/17 12:09:42;;;;;;;1.65;0.43;;;;;;;16.29;44.33;100221.88;5093434;28;20158;-50